Thursday, June 30, 2016, 2:44 AM EDT

KIPT, Williamsport-lycoming County

Location: Montoursville, PA, United States Lat: 41.25
Local Time: 2:44 AM EDT ( 6:44 GMT) Lon: -76.917
Time Zone: US/Eastern Elev: 528 ft

Show me the last for .
Show Decoded

2016-06-30 01:54 METAR KIPT 300554Z AUTO 28008KT 10SM CLR 18/13 A3002 RMK AO2 SLP163 T01780133
                 10233 20172 53010 =
2016-06-30 00:54 METAR KIPT 300454Z AUTO 33003KT 10SM CLR 18/14 A3001 RMK AO2 SLP159 T01780139
                 402610161 =
2016-06-29 23:54 METAR KIPT 300354Z AUTO 34003KT 10SM FEW070 18/14 A3000 RMK AO2 SLP156 T01830144
                 =
2016-06-29 22:54 METAR KIPT 300254Z AUTO 35005KT 10SM BKN060 OVC075 19/14 A2999 RMK AO2 SLP153
                 T01890144 51012 =
2016-06-29 21:54 METAR KIPT 300154Z 35004KT 10SM FEW060 SCT070 21/14 A2998 RMK AO2 SLP150
                 T02060144 =
2016-06-29 20:54 METAR KIPT 300054Z 25003KT 10SM BKN065 22/14 A2996 RMK AO2 SLP144 T02170144 =
2016-06-29 19:54 METAR KIPT 292354Z 32005KT 10SM FEW070 OVC095 23/13 A2995 RMK AO2 SLP140
                 T02330128 10261 20228 53006 =
2016-06-29 18:54 METAR KIPT 292254Z 27007KT 10SM FEW070 OVC090 24/13 A2994 RMK AO2 SLP136
                 T02390133 =
2016-06-29 17:54 METAR KIPT 292154Z 27009G18KT 10SM BKN080 24/13 A2993 RMK AO2 SLP132 T02440133 =
2016-06-29 16:54 METAR KIPT 292054Z 26006KT 10SM FEW050 26/12 A2993 RMK AO2 SLP133 T02560117
                 58007 =
2016-06-29 15:54 METAR KIPT 291954Z 31010KT 10SM FEW080 26/12 A2994 RMK AO2 SLP135 T02560117 =
2016-06-29 14:54 METAR KIPT 291854Z 31008KT 10SM OVC075 23/12 A2995 RMK AO2 SLP140 T02330117 =
2016-06-29 13:54 METAR KIPT 291754Z 30008KT 10SM FEW036 OVC070 23/12 A2996 RMK AO2 SLP141
                 T02280122 10244 20178 55002 =
2016-06-29 12:54 METAR KIPT 291654Z 34011KT 10SM SCT042 BKN055 23/12 A2995 RMK AO2 SLP138
                 T02280117 =
2016-06-29 11:54 METAR KIPT 291554Z 31010KT 10SM SCT030 BKN040 23/12 A2995 RMK AO2 SLP140
                 T02280122 =
2016-06-29 10:54 METAR KIPT 291454Z 24008KT 10SM SCT029 22/13 A2996 RMK AO2 SLP143 T02170128
                 51002 =
2016-06-29 09:54 METAR KIPT 291354Z COR 24008KT 10SM SCT029 21/13 A2996 =
2016-06-29 08:54 METAR KIPT 291254Z 26008KT 10SM SCT050 18/13 A2996 RMK AO2 SLP143 T01830128 =
2016-06-29 07:54 METAR KIPT 291154Z 26010KT 10SM SCT060 18/13 A2995 RMK AO2 SLP141 70259
                 T01780128 10178 20161 51012 =
2016-06-29 06:54 METAR KIPT 291054Z 27007KT 10SM SCT045 BKN055 17/14 A2995 RMK AO2 SLP141
                 T01670139 =
2016-06-29 05:54 METAR KIPT 290954Z AUTO 28005KT 10SM CLR 16/14 A2993 RMK AO2 SLP134 T01610139 =
2016-06-29 04:54 METAR KIPT 290854Z AUTO 27008KT 10SM CLR 17/15 A2992 RMK AO2 SLP129 T01670150
                 53001 =
2016-06-29 03:54 METAR KIPT 290754Z AUTO 27009KT 10SM FEW040 17/16 A2991 RMK AO2 SLP126 T01720156
                 =
2016-06-29 02:54 METAR KIPT 290654Z AUTO 00000KT 10SM SCT004 17/16 A2991 RMK AO2 SLP127 T01720161
                 =
2016-06-29 02:51 METAR KIPT 290651Z AUTO 30003KT 10SM SCT004 17/16 A2991 RMK AO2 =

Support USWX by starting your Amazon purchase here.